Time;durP1;ratioP1;P1;durP2;ratioP2;P2;SDS_P1;SDS_P2;PMS_P1;PMS_P2;Temp;Humidity;BMP_temperature;BMP_pressure;BME280_temperature;BME280_humidity;BME280_pressure;Samples;Min_cycle;Max_cycle;Signal;HPM_P1;HPM_P2
2022/02/01 00:01:32;;;;;;;20.37;3.40;;;2.60;1.00;;;;;;5052849;28;20467;-61
2022/02/01 00:04:03;;;;;;;13.20;2.83;;;2.70;1.00;;;;;;5054240;28;20977;-61
2022/02/01 00:06:41;;;;;;;20.97;3.37;;;2.70;1.00;;;;;;5054565;28;20444;-60
2022/02/01 00:09:17;;;;;;;11.90;3.37;;;2.60;1.00;;;;;;5054446;28;20440;-60
2022/02/01 00:11:54;;;;;;;18.83;3.53;;;2.50;1.00;;;;;;5054755;28;20491;-60
2022/02/01 00:14:30;;;;;;;16.17;3.10;;;2.40;1.00;;;;;;5054523;28;20466;-60
2022/02/01 00:20:05;;;;;;;18.00;2.63;;;2.30;1.00;;;;;;5038204;28;20432;-60
2022/02/01 00:34:08;;;;;;;8.83;3.43;;;2.20;1.00;;;;;;4997465;28;20457;-60
2022/02/01 00:36:40;;;;;;;8.90;2.43;;;2.30;1.00;;;;;;5053881;28;20459;-60
2022/02/01 00:39:10;;;;;;;13.40;3.30;;;2.30;1.00;;;;;;5054444;28;20510;-60
2022/02/01 00:41:42;;;;;;;13.07;2.50;;;2.30;1.00;;;;;;5054341;28;20468;-60
2022/02/01 00:44:09;;;;;;;17.93;3.47;;;2.30;1.00;;;;;;5054221;28;20502;-60
2022/02/01 00:46:36;;;;;;;23.57;3.43;;;2.30;1.00;;;;;;5053744;28;20451;-60
2022/02/01 00:49:03;;;;;;;14.53;3.07;;;2.40;1.00;;;;;;5053720;28;20497;-60
2022/02/01 00:51:29;;;;;;;13.13;2.90;;;2.30;1.00;;;;;;5053761;28;20515;-61
2022/02/01 00:53:57;;;;;;;17.23;2.97;;;2.30;1.00;;;;;;5053888;28;20787;-60
2022/02/01 00:56:25;;;;;;;14.27;2.47;;;2.30;1.00;;;;;;5055045;28;20449;-61
2022/02/01 00:58:51;;;;;;;17.43;2.80;;;2.30;1.00;;;;;;5059489;28;20448;-61
2022/02/01 01:01:18;;;;;;;13.50;2.90;;;2.30;1.00;;;;;;5054176;28;20946;-60
2022/02/01 01:03:45;;;;;;;17.07;2.70;;;2.40;1.00;;;;;;5054036;28;20444;-61
2022/02/01 01:06:12;;;;;;;14.53;2.30;;;2.40;1.00;;;;;;5053668;28;20444;-60
2022/02/01 01:08:40;;;;;;;10.90;2.43;;;2.50;1.00;;;;;;5053534;28;20449;-59
2022/02/01 01:11:09;;;;;;;17.50;2.73;;;2.50;1.00;;;;;;5053830;28;20456;-58
2022/02/01 01:14:03;;;;;;;18.00;3.67;;;2.50;1.00;;;;;;5053120;28;20492;-61
2022/02/01 01:16:52;;;;;;;12.37;2.47;;;2.50;1.30;;;;;;5053193;28;20478;-60
2022/02/01 01:44:27;;;;;;;13.23;2.43;;;2.60;34.90;;;;;;4970072;28;20439;-59
2022/02/01 01:55:10;;;;;;;7.63;2.20;;;2.50;33.00;;;;;;5052435;28;20455;-59
2022/02/01 01:57:37;;;;;;;10.90;3.20;;;2.50;39.10;;;;;;5051916;28;20452;-60
2022/02/01 02:00:10;;;;;;;11.60;2.40;;;2.60;41.90;;;;;;5052449;28;20444;-58
2022/02/01 02:02:37;;;;;;;7.90;1.93;;;2.60;47.50;;;;;;5052719;28;20475;-59
2022/02/01 02:05:04;;;;;;;7.43;2.03;;;2.60;53.00;;;;;;5052284;28;20510;-59
2022/02/01 02:07:31;;;;;;;9.33;1.57;;;2.60;58.40;;;;;;5052017;28;20506;-59
2022/02/01 02:09:58;;;;;;;12.50;2.13;;;2.60;62.70;;;;;;5051872;28;20994;-59
2022/02/01 02:12:48;;;;;;;7.90;2.03;;;2.60;65.50;;;;;;5051966;28;20591;-59
2022/02/01 02:15:28;;;;;;;10.90;2.23;;;2.60;71.70;;;;;;5052059;28;20502;-59
2022/02/01 02:18:00;;;;;;;7.73;2.17;;;2.60;70.70;;;;;;5051826;28;20452;-59
2022/02/01 02:20:39;;;;;;;7.17;2.33;;;2.60;69.30;;;;;;5051903;28;20498;-60
2022/02/01 02:23:07;;;;;;;12.03;1.93;;;2.70;72.10;;;;;;5052150;28;20468;-59
2022/02/01 02:25:36;;;;;;;14.07;2.30;;;2.70;69.90;;;;;;5050722;28;20462;-57
2022/02/01 02:28:04;;;;;;;14.00;1.93;;;2.70;64.80;;;;;;5051577;28;20957;-56
2022/02/01 02:30:30;;;;;;;17.90;2.60;;;2.70;65.80;;;;;;5052115;28;20458;-59
2022/02/01 02:33:02;;;;;;;13.97;2.47;;;2.70;64.20;;;;;;5051872;28;20483;-59
2022/02/01 02:35:33;;;;;;;14.20;2.20;;;2.70;67.60;;;;;;5051487;28;20953;-58
2022/02/01 02:38:03;;;;;;;13.83;2.20;;;2.70;72.10;;;;;;5051408;28;20950;-54
2022/02/01 02:40:44;;;;;;;10.43;2.23;;;2.60;74.90;;;;;;5052066;28;20452;-59
2022/02/01 02:45:54;;;;;;;12.03;2.30;;;2.60;87.20;;;;;;5051532;28;20478;-59
2022/02/01 02:48:21;;;;;;;11.60;2.10;;;2.70;89.90;;;;;;5051675;28;20444;-60
2022/02/01 02:50:48;;;;;;;13.43;2.57;;;2.70;89.70;;;;;;5051823;28;20559;-57
2022/02/01 02:53:14;;;;;;;11.40;2.10;;;2.70;89.60;;;;;;5050963;28;20492;-60
2022/02/01 02:55:42;;;;;;;16.47;2.53;;;2.70;90.00;;;;;;5051457;28;20506;-58
2022/02/01 02:58:09;;;;;;;9.37;1.80;;;2.70;89.90;;;;;;5050829;28;20506;-60
2022/02/01 03:00:36;;;;;;;15.97;2.43;;;2.70;86.50;;;;;;5051695;28;20590;-60
2022/02/01 03:03:02;;;;;;;10.07;2.40;;;2.70;89.00;;;;;;5051351;28;20475;-60
2022/02/01 03:05:29;;;;;;;16.20;2.20;;;2.70;86.20;;;;;;5051522;28;20509;-60
2022/02/01 03:07:56;;;;;;;10.70;2.57;;;2.70;84.80;;;;;;5051155;28;20954;-59
2022/02/01 03:10:23;;;;;;;14.00;2.23;;;2.80;83.30;;;;;;5051386;28;21051;-60
2022/02/01 03:13:08;;;;;;;11.23;2.70;;;2.80;76.90;;;;;;5051356;28;20516;-60
2022/02/01 03:15:42;;;;;;;14.37;2.90;;;2.80;73.60;;;;;;5051699;28;20436;-60
2022/02/01 03:20:53;;;;;;;11.70;2.80;;;2.80;65.30;;;;;;5051165;28;20474;-60
2022/02/01 03:23:20;;;;;;;15.63;3.00;;;2.80;65.10;;;;;;5051032;28;21067;-57
2022/02/01 03:25:47;;;;;;;13.30;3.07;;;2.90;65.10;;;;;;5051067;28;20452;-58
2022/02/01 03:28:15;;;;;;;11.63;3.90;;;2.90;65.20;;;;;;5050944;28;20943;-60
2022/02/01 03:30:42;;;;;;;13.97;2.53;;;2.80;69.30;;;;;;5051387;28;20444;-60
2022/02/01 03:33:08;;;;;;;14.73;3.20;;;2.80;80.80;;;;;;5051152;28;20480;-60
2022/02/01 03:35:35;;;;;;;8.60;2.33;;;2.80;85.30;;;;;;5051721;28;20877;-59
2022/02/01 03:38:02;;;;;;;11.83;2.87;;;2.80;84.40;;;;;;5055122;28;21067;-60
2022/02/01 03:40:29;;;;;;;8.80;2.30;;;2.70;85.20;;;;;;5055254;28;20535;-59
2022/02/01 03:42:56;;;;;;;7.10;2.60;;;2.70;90.80;;;;;;5055501;28;20480;-60
2022/02/01 03:45:24;;;;;;;10.77;2.80;;;2.70;92.10;;;;;;5054616;28;20527;-59
2022/02/01 03:47:51;;;;;;;9.80;2.40;;;2.70;91.30;;;;;;5054631;28;20444;-60
2022/02/01 03:50:18;;;;;;;7.13;2.27;;;2.70;92.20;;;;;;5055027;28;20474;-60
2022/02/01 03:52:44;;;;;;;8.53;2.07;;;2.70;90.80;;;;;;5054346;28;20492;-60
2022/02/01 03:55:11;;;;;;;11.87;2.53;;;2.80;90.00;;;;;;5054855;28;20452;-59
2022/02/01 03:57:38;;;;;;;18.20;1.80;;;2.70;81.90;;;;;;5054296;28;20444;-60
2022/02/01 04:00:06;;;;;;;13.30;2.20;;;2.70;82.00;;;;;;5054684;28;20444;-60
2022/02/01 04:02:34;;;;;;;12.07;2.47;;;2.70;80.20;;;;;;5054027;28;20890;-58
2022/02/01 04:05:01;;;;;;;15.03;2.80;;;2.70;81.40;;;;;;5054474;28;20499;-60
2022/02/01 04:07:27;;;;;;;6.97;2.00;;;2.70;76.50;;;;;;5054187;28;20517;-60
2022/02/01 04:09:54;;;;;;;12.97;2.00;;;2.70;77.00;;;;;;5054601;28;20471;-60
2022/02/01 04:12:21;;;;;;;10.27;2.47;;;2.70;79.30;;;;;;5054659;28;20470;-59
2022/02/01 04:14:47;;;;;;;15.43;2.17;;;2.70;79.20;;;;;;5054581;28;20455;-60
2022/02/01 04:17:14;;;;;;;11.27;1.93;;;2.70;83.90;;;;;;5054001;28;20451;-59
2022/02/01 04:19:43;;;;;;;10.70;2.10;;;2.60;82.70;;;;;;5054027;28;20961;-59
2022/02/01 04:22:11;;;;;;;9.80;2.23;;;2.50;85.10;;;;;;5054289;28;20482;-60
2022/02/01 04:24:40;;;;;;;17.37;2.27;;;2.50;91.80;;;;;;5054051;28;20946;-57
2022/02/01 04:27:08;;;;;;;8.60;2.37;;;2.50;92.70;;;;;;5054497;28;20448;-60
2022/02/01 04:29:37;;;;;;;11.13;2.47;;;2.50;93.50;;;;;;5053848;28;20450;-60
2022/02/01 04:32:04;;;;;;;7.00;1.80;;;2.40;95.30;;;;;;5053944;28;20563;-57
2022/02/01 04:34:31;;;;;;;12.27;2.03;;;2.40;98.20;;;;;;5053707;28;20484;-60
2022/02/01 04:36:59;;;;;;;13.23;2.17;;;2.40;99.90;;;;;;5053917;28;20446;-61
2022/02/01 04:39:26;;;;;;;9.40;2.17;;;2.40;99.90;;;;;;5053825;28;20452;-58
2022/02/01 04:41:53;;;;;;;6.13;1.40;;;2.30;99.90;;;;;;5053967;28;20472;-59
2022/02/01 04:44:20;;;;;;;7.60;1.73;;;2.30;99.90;;;;;;5053478;28;20534;-59
2022/02/01 04:46:47;;;;;;;14.20;2.27;;;2.30;99.90;;;;;;5053276;28;20523;-59
2022/02/01 04:49:13;;;;;;;13.60;2.53;;;2.30;99.90;;;;;;5053117;28;20456;-59
2022/02/01 04:51:40;;;;;;;9.70;2.27;;;2.30;99.90;;;;;;5053333;28;20588;-59
2022/02/01 04:54:09;;;;;;;11.13;1.90;;;2.30;99.90;;;;;;5053362;28;20495;-59
2022/02/01 04:56:36;;;;;;;23.07;5.70;;;2.30;99.90;;;;;;5053506;28;20463;-61
2022/02/01 04:59:03;;;;;;;11.03;2.47;;;2.30;99.90;;;;;;5054186;28;21011;-59
2022/02/01 05:01:37;;;;;;;13.93;2.77;;;2.30;99.90;;;;;;5053836;28;20472;-58
2022/02/01 05:04:04;;;;;;;9.70;2.20;;;2.30;99.90;;;;;;5053726;28;20498;-61
2022/02/01 05:06:31;;;;;;;11.53;2.57;;;2.40;99.90;;;;;;5053326;28;20494;-59
2022/02/01 05:08:58;;;;;;;12.17;2.93;;;2.40;99.90;;;;;;5053793;28;20455;-59
2022/02/01 05:11:26;;;;;;;7.63;2.50;;;2.30;99.90;;;;;;5057579;28;21003;-59
2022/02/01 05:16:44;;;;;;;9.60;2.20;;;2.30;99.90;;;;;;5050111;28;20454;-58
2022/02/01 05:19:15;;;;;;;12.93;2.77;;;2.30;99.90;;;;;;5053524;28;20444;-57
2022/02/01 05:21:43;;;;;;;13.70;2.43;;;2.30;99.90;;;;;;5057416;28;20474;-63
2022/02/01 05:24:12;;;;;;;6.83;2.53;;;2.30;99.90;;;;;;5053336;28;20448;-58
2022/02/01 05:26:42;;;;;;;18.67;3.17;;;2.30;99.90;;;;;;5052593;28;20449;-58
2022/02/01 05:29:09;;;;;;;15.83;2.60;;;2.30;99.90;;;;;;5052784;28;20448;-59
2022/02/01 05:31:36;;;;;;;13.60;2.13;;;2.40;99.90;;;;;;5052628;28;20841;-59
2022/02/01 05:34:02;;;;;;;7.20;3.13;;;2.40;99.90;;;;;;5052445;28;20480;-59
2022/02/01 05:36:29;;;;;;;11.97;2.73;;;2.40;99.90;;;;;;5052416;28;20448;-59
2022/02/01 05:38:56;;;;;;;6.97;2.40;;;2.40;99.90;;;;;;5052692;28;20460;-58
2022/02/01 05:41:25;;;;;;;12.87;2.77;;;2.40;99.90;;;;;;5051032;28;20476;-58
2022/02/01 05:43:53;;;;;;;12.27;2.80;;;2.50;99.90;;;;;;5055522;28;20458;-57
2022/02/01 05:46:20;;;;;;;10.50;2.50;;;2.40;99.90;;;;;;5072214;28;20856;-59
2022/02/01 05:48:47;;;;;;;7.03;2.60;;;2.40;99.90;;;;;;5077609;28;20541;-59
2022/02/01 05:51:14;;;;;;;16.87;3.57;;;2.40;99.90;;;;;;5075162;28;20444;-60
2022/02/01 05:53:40;;;;;;;12.13;2.87;;;2.40;99.90;;;;;;5071567;28;20544;-59
2022/02/01 05:56:07;;;;;;;11.17;2.77;;;2.30;99.90;;;;;;5072576;28;20496;-56
2022/02/01 05:58:34;;;;;;;6.23;2.63;;;2.30;99.90;;;;;;5072549;28;20455;-60
2022/02/01 06:01:02;;;;;;;10.60;2.93;;;2.30;99.90;;;;;;5076952;28;20450;-60
2022/02/01 06:03:29;;;;;;;11.03;2.30;;;2.30;99.90;;;;;;5078302;28;20442;-60
2022/02/01 06:05:55;;;;;;;11.57;2.87;;;2.30;99.90;;;;;;5072306;28;20864;-58
2022/02/01 06:08:22;;;;;;;4.10;1.67;;;2.30;99.90;;;;;;5071779;28;20946;-58
2022/02/01 06:10:49;;;;;;;7.47;3.03;;;2.30;99.90;;;;;;5071937;28;20455;-59
2022/02/01 06:13:16;;;;;;;8.93;2.87;;;2.30;99.90;;;;;;5071596;28;20487;-59
2022/02/01 06:15:42;;;;;;;8.93;2.60;;;2.30;99.90;;;;;;5071727;28;20451;-58
2022/02/01 06:18:11;;;;;;;9.83;2.50;;;2.30;99.90;;;;;;5071373;28;20454;-58
2022/02/01 06:20:37;;;;;;;7.43;2.57;;;2.40;99.90;;;;;;5071647;28;20451;-60
2022/02/01 06:23:12;;;;;;;7.67;2.63;;;2.40;99.90;;;;;;5071439;28;20470;-60
2022/02/01 06:28:27;;;;;;;18.10;3.17;;;2.40;99.90;;;;;;5066313;28;21022;-60
2022/02/01 06:30:55;;;;;;;9.60;2.63;;;2.40;99.90;;;;;;5063061;28;20444;-61
2022/02/01 06:33:24;;;;;;;16.03;3.50;;;2.50;99.90;;;;;;5051367;28;20851;-61
2022/02/01 06:35:51;;;;;;;12.53;3.07;;;2.50;99.90;;;;;;5051201;28;20569;-61
2022/02/01 06:38:18;;;;;;;17.13;3.67;;;2.50;99.90;;;;;;5051591;28;20451;-62
2022/02/01 06:40:47;;;;;;;10.30;2.97;;;2.50;99.90;;;;;;5051436;28;20452;-63
2022/02/01 06:43:16;;;;;;;10.77;3.03;;;2.50;99.90;;;;;;5061721;28;20475;-62
2022/02/01 06:45:43;;;;;;;12.70;4.10;;;2.50;99.90;;;;;;5071639;28;20460;-62
2022/02/01 06:48:09;;;;;;;6.20;2.43;;;2.60;99.90;;;;;;5071544;28;20450;-62
2022/02/01 06:50:37;;;;;;;8.07;3.13;;;2.60;99.90;;;;;;5071572;28;20447;-62
2022/02/01 06:53:06;;;;;;;13.00;3.50;;;2.60;99.90;;;;;;5070665;28;20479;-62
2022/02/01 06:55:36;;;;;;;10.80;3.87;;;2.60;99.50;;;;;;5071227;28;20453;-62
2022/02/01 06:58:04;;;;;;;7.33;3.87;;;2.60;98.20;;;;;;5071031;28;20451;-63
2022/02/01 07:00:31;;;;;;;9.27;3.47;;;2.70;99.70;;;;;;5071426;28;20446;-62
2022/02/01 07:02:58;;;;;;;9.43;3.50;;;2.60;98.90;;;;;;5071036;28;20467;-62
2022/02/01 07:05:24;;;;;;;7.77;2.63;;;2.70;98.30;;;;;;5070797;28;20505;-62
2022/02/01 07:07:52;;;;;;;11.70;3.20;;;2.70;93.70;;;;;;5071542;28;20455;-63
2022/02/01 07:10:20;;;;;;;5.77;2.00;;;2.70;90.80;;;;;;5070876;28;20459;-62
2022/02/01 07:12:46;;;;;;;18.27;3.20;;;2.70;84.90;;;;;;5075331;28;20688;-61
2022/02/01 07:15:14;;;;;;;13.17;3.20;;;2.70;79.40;;;;;;5075131;28;20490;-61
2022/02/01 07:17:48;;;;;;;6.83;2.93;;;2.70;84.00;;;;;;5075259;28;20454;-59
2022/02/01 07:20:15;;;;;;;15.17;3.60;;;2.70;90.00;;;;;;5075024;28;20541;-62
2022/02/01 07:22:44;;;;;;;7.23;3.17;;;2.70;90.30;;;;;;5074311;28;20470;-65
2022/02/01 07:25:15;;;;;;;11.00;3.00;;;2.80;85.40;;;;;;5075201;28;20447;-66
2022/02/01 07:27:47;;;;;;;9.77;2.83;;;2.80;73.80;;;;;;5074960;28;20455;-64
2022/02/01 07:30:19;;;;;;;12.70;3.13;;;2.80;72.10;;;;;;5075378;28;20542;-73
2022/02/01 07:32:46;;;;;;;6.57;2.83;;;2.80;67.90;;;;;;5074446;28;20578;-69
2022/02/01 07:35:13;;;;;;;5.07;2.83;;;3.00;78.80;;;;;;5074879;28;20483;-69
2022/02/01 07:37:42;;;;;;;10.10;2.70;;;3.00;79.30;;;;;;5074936;28;20457;-71
2022/02/01 07:40:10;;;;;;;9.77;2.67;;;3.10;72.10;;;;;;5075559;28;20457;-68
2022/02/01 07:42:38;;;;;;;8.20;2.57;;;3.20;55.50;;;;;;5074407;28;20467;-61
2022/02/01 07:45:07;;;;;;;7.23;2.53;;;3.30;59.40;;;;;;5074176;28;20993;-60
2022/02/01 07:47:34;;;;;;;14.53;3.20;;;3.30;38.70;;;;;;5074311;28;20455;-61
2022/02/01 07:50:01;;;;;;;9.63;2.60;;;3.20;39.90;;;;;;5074335;28;20447;-62
2022/02/01 07:52:28;;;;;;;10.70;2.83;;;3.20;48.90;;;;;;5073915;28;20876;-63
2022/02/01 07:54:54;;;;;;;10.37;2.70;;;3.10;54.60;;;;;;5074186;28;20490;-63
2022/02/01 07:57:21;;;;;;;10.60;3.17;;;3.10;60.30;;;;;;5074125;28;20447;-63
2022/02/01 07:59:49;;;;;;;8.50;2.70;;;3.10;70.10;;;;;;5074757;28;20473;-66
2022/02/01 08:02:20;;;;;;;5.57;2.70;;;3.10;77.40;;;;;;5074064;28;20985;-63
2022/02/01 08:04:47;;;;;;;7.47;3.33;;;3.10;84.80;;;;;;5074957;28;20493;-62
2022/02/01 08:07:15;;;;;;;7.20;2.83;;;3.10;93.00;;;;;;5074064;28;20451;-57
2022/02/01 08:09:44;;;;;;;12.10;3.57;;;3.10;99.40;;;;;;5074106;28;20838;-59
2022/02/01 08:12:22;;;;;;;7.87;3.60;;;3.20;99.90;;;;;;5073498;28;20646;-59
2022/02/01 08:15:54;;;;;;;10.07;2.77;;;3.10;99.90;;;;;;5073669;28;20561;-59
2022/02/01 08:18:19;;;;;;;11.30;3.50;;;3.20;99.90;;;;;;5074107;28;20447;-59
2022/02/01 08:20:49;;;;;;;9.13;3.73;;;3.20;99.90;;;;;;5074727;28;20454;-63
2022/02/01 08:23:16;;;;;;;10.87;3.00;;;3.20;99.90;;;;;;5071933;28;20471;-63
2022/02/01 08:25:43;;;;;;;11.77;4.23;;;3.10;99.90;;;;;;5068983;28;20464;-64
2022/02/01 08:28:11;;;;;;;9.80;3.67;;;3.20;99.90;;;;;;5054046;28;20823;-64
2022/02/01 08:30:39;;;;;;;8.03;4.27;;;3.20;99.90;;;;;;5053700;28;20480;-63
2022/02/01 08:33:08;;;;;;;8.43;4.47;;;3.10;99.90;;;;;;5053657;28;20475;-63
2022/02/01 08:35:35;;;;;;;11.37;4.80;;;3.10;99.90;;;;;;5053042;28;20889;-63
2022/02/01 08:38:02;;;;;;;9.50;4.53;;;3.20;99.90;;;;;;5054050;28;20448;-62
2022/02/01 08:40:29;;;;;;;8.73;4.10;;;3.20;99.90;;;;;;5054198;28;20448;-62
2022/02/01 08:42:55;;;;;;;15.33;5.17;;;3.10;99.90;;;;;;5053551;28;20476;-64
2022/02/01 08:45:24;;;;;;;11.17;5.17;;;3.10;99.90;;;;;;5053616;28;20440;-64
2022/02/01 08:47:53;;;;;;;12.97;5.83;;;3.20;99.90;;;;;;5053772;28;20887;-63
2022/02/01 08:50:25;;;;;;;9.93;4.57;;;3.10;99.90;;;;;;5053217;28;20459;-64
2022/02/01 08:52:53;;;;;;;10.57;4.73;;;3.20;99.90;;;;;;5052579;28;20488;-65
2022/02/01 08:55:33;;;;;;;7.83;4.53;;;3.20;99.90;;;;;;5054331;28;20495;-58
2022/02/01 08:58:00;;;;;;;5.90;3.87;;;3.20;99.90;;;;;;5053330;28;20444;-60
2022/02/01 09:00:28;;;;;;;11.73;5.53;;;3.20;99.90;;;;;;5053642;28;20514;-62
2022/02/01 09:02:57;;;;;;;9.00;5.70;;;3.20;99.90;;;;;;5053009;28;20461;-64
2022/02/01 09:05:24;;;;;;;9.33;5.27;;;3.30;99.90;;;;;;5053807;28;20480;-64
2022/02/01 09:07:51;;;;;;;10.40;5.50;;;3.30;99.90;;;;;;5053459;28;20451;-61
2022/02/01 09:10:17;;;;;;;10.40;6.13;;;3.30;99.90;;;;;;5052994;28;20509;-63
2022/02/01 09:12:44;;;;;;;14.80;6.07;;;3.30;99.90;;;;;;5054776;28;20475;-63
2022/02/01 09:15:11;;;;;;;13.90;5.57;;;3.40;99.90;;;;;;5059424;28;20946;-61
2022/02/01 09:17:38;;;;;;;8.90;5.47;;;3.40;99.90;;;;;;5053706;28;20468;-63
2022/02/01 09:20:07;;;;;;;11.07;5.63;;;3.40;99.90;;;;;;5052871;28;20530;-63
2022/02/01 09:22:34;;;;;;;7.97;5.67;;;3.50;99.90;;;;;;5052728;28;20464;-63
2022/02/01 09:25:01;;;;;;;8.03;5.17;;;3.50;99.90;;;;;;5055510;28;20474;-64
2022/02/01 09:27:27;;;;;;;9.13;5.27;;;3.50;99.90;;;;;;5055275;28;20518;-64
2022/02/01 09:29:55;;;;;;;6.27;4.40;;;3.50;99.90;;;;;;5052728;28;21614;-62
2022/02/01 09:32:23;;;;;;;6.90;4.63;;;3.50;99.90;;;;;;5051943;28;20495;-66
2022/02/01 09:34:50;;;;;;;8.57;4.80;;;3.50;99.90;;;;;;5051975;28;20263;-65
2022/02/01 09:37:18;;;;;;;7.53;4.77;;;3.50;99.90;;;;;;5052127;28;20506;-64
2022/02/01 09:39:45;;;;;;;14.70;5.10;;;3.50;99.90;;;;;;5052694;28;20488;-64
2022/02/01 09:42:12;;;;;;;11.23;6.03;;;3.60;99.90;;;;;;5052501;28;20884;-64
2022/02/01 09:44:38;;;;;;;10.27;6.23;;;3.60;99.90;;;;;;5052445;28;20448;-65
2022/02/01 09:47:05;;;;;;;11.27;6.83;;;3.60;99.90;;;;;;5053827;28;20202;-65
2022/02/01 09:49:32;;;;;;;10.00;6.07;;;3.60;99.90;;;;;;5054542;28;20522;-64
2022/02/01 09:51:59;;;;;;;12.20;6.90;;;3.60;99.90;;;;;;5051729;28;20486;-64
2022/02/01 09:54:29;;;;;;;11.57;7.23;;;3.70;99.90;;;;;;5051353;28;20558;-63
2022/02/01 09:56:58;;;;;;;12.63;5.97;;;3.60;99.90;;;;;;5051623;28;20451;-62
2022/02/01 09:59:31;;;;;;;10.23;6.60;;;3.70;99.90;;;;;;5051968;28;20860;-60
2022/02/01 10:02:03;;;;;;;11.30;6.70;;;3.80;99.90;;;;;;5051985;28;20585;-63
2022/02/01 10:04:30;;;;;;;14.63;8.17;;;3.80;99.90;;;;;;5051904;28;20209;-60
2022/02/01 10:07:09;;;;;;;13.93;7.90;;;3.80;99.90;;;;;;5051944;28;20209;-60
2022/02/01 10:09:51;;;;;;;11.83;6.90;;;3.80;99.90;;;;;;5051736;28;21070;-61
2022/02/01 10:12:19;;;;;;;10.57;5.93;;;3.90;99.90;;;;;;5051487;28;20651;-61
2022/02/01 10:14:53;;;;;;;16.10;7.90;;;3.80;99.90;;;;;;5051644;28;20735;-61
2022/02/01 10:17:27;;;;;;;12.50;7.53;;;3.90;99.90;;;;;;5051255;28;20452;-61
2022/02/01 10:19:54;;;;;;;10.70;6.30;;;3.80;99.90;;;;;;5051657;28;20448;-62
2022/02/01 10:22:30;;;;;;;11.27;7.60;;;3.80;99.90;;;;;;5051233;28;20995;-61
2022/02/01 10:24:58;;;;;;;13.97;7.33;;;3.80;99.90;;;;;;5051669;28;20440;-61
2022/02/01 10:27:27;;;;;;;14.07;7.97;;;3.90;99.90;;;;;;5070276;28;20201;-61
2022/02/01 10:30:02;;;;;;;10.23;8.17;;;3.90;99.90;;;;;;5071317;28;20980;-63
2022/02/01 10:32:42;;;;;;;14.20;7.83;;;3.80;99.90;;;;;;5070733;28;20483;-63
2022/02/01 10:35:25;;;;;;;13.00;8.57;;;3.90;99.90;;;;;;5071315;28;20225;-61
2022/02/01 10:38:00;;;;;;;14.53;8.73;;;3.90;99.90;;;;;;5071229;28;20686;-61
2022/02/01 10:40:38;;;;;;;14.33;8.83;;;4.00;99.90;;;;;;5070793;28;20452;-62
2022/02/01 10:43:15;;;;;;;12.07;8.23;;;4.00;99.90;;;;;;5071344;28;20470;-61
2022/02/01 10:45:42;;;;;;;16.30;9.33;;;4.00;99.90;;;;;;5070199;28;20233;-61
2022/02/01 10:48:12;;;;;;;11.47;7.27;;;4.00;99.90;;;;;;5071133;28;20296;-61
2022/02/01 10:50:39;;;;;;;14.67;9.00;;;4.00;99.90;;;;;;5054192;28;20214;-61
2022/02/01 10:53:16;;;;;;;16.23;9.03;;;4.00;99.90;;;;;;5051060;28;20287;-62
2022/02/01 10:55:45;;;;;;;15.07;8.90;;;4.10;99.90;;;;;;5051536;28;20755;-61
2022/02/01 10:58:12;;;;;;;14.60;9.47;;;4.10;99.90;;;;;;5051421;28;20448;-61
2022/02/01 11:00:39;;;;;;;13.40;8.10;;;4.10;99.90;;;;;;5050991;28;20232;-60
2022/02/01 11:03:06;;;;;;;14.73;8.53;;;4.20;99.90;;;;;;5050809;28;20238;-60
2022/02/01 11:05:36;;;;;;;14.97;8.40;;;4.20;99.90;;;;;;5051355;28;20211;-63
2022/02/01 11:08:03;;;;;;;17.73;9.00;;;4.30;99.90;;;;;;5050647;28;20206;-63
2022/02/01 11:10:29;;;;;;;13.73;8.53;;;4.30;99.90;;;;;;5050562;28;20210;-63
2022/02/01 11:13:06;;;;;;;13.03;8.60;;;4.40;99.90;;;;;;5050770;28;20221;-63
2022/02/01 11:15:33;;;;;;;13.63;8.53;;;4.40;99.90;;;;;;5050856;28;20253;-60
2022/02/01 11:18:09;;;;;;;12.73;7.67;;;4.40;99.90;;;;;;5051590;28;20553;-61
2022/02/01 11:20:36;;;;;;;11.23;6.10;;;4.40;99.90;;;;;;5051847;28;20194;-60
2022/02/01 11:23:03;;;;;;;10.87;6.63;;;4.40;99.90;;;;;;5051719;28;20225;-60
2022/02/01 11:25:42;;;;;;;10.10;6.67;;;4.50;99.90;;;;;;5051414;28;20233;-61
2022/02/01 11:28:20;;;;;;;13.40;7.40;;;4.50;99.90;;;;;;5050963;28;20241;-60
2022/02/01 11:30:53;;;;;;;8.60;6.33;;;4.60;99.90;;;;;;5050577;28;20635;-61
2022/02/01 11:33:20;;;;;;;11.60;6.53;;;4.50;99.90;;;;;;5050638;28;20317;-61
2022/02/01 11:35:58;;;;;;;9.60;5.90;;;4.60;99.90;;;;;;5050217;28;20234;-63
2022/02/01 11:38:25;;;;;;;7.00;5.33;;;4.60;99.90;;;;;;5051758;28;20240;-65
2022/02/01 11:41:03;;;;;;;6.57;5.10;;;4.60;99.90;;;;;;5051663;28;20210;-63
2022/02/01 11:43:32;;;;;;;7.13;5.13;;;4.70;99.90;;;;;;5051116;28;20206;-61
2022/02/01 11:46:01;;;;;;;7.20;4.90;;;4.70;99.90;;;;;;5050624;28;20212;-62
2022/02/01 11:48:30;;;;;;;5.57;3.67;;;4.70;99.90;;;;;;5050380;28;20207;-64
2022/02/01 11:50:59;;;;;;;6.23;4.40;;;4.80;99.90;;;;;;5050432;28;20297;-64
2022/02/01 11:53:29;;;;;;;6.77;4.50;;;4.80;99.90;;;;;;5049437;28;20235;-63
2022/02/01 11:55:58;;;;;;;6.73;4.70;;;4.90;99.90;;;;;;5050450;28;20237;-63
2022/02/01 11:58:31;;;;;;;6.30;4.70;;;4.80;99.90;;;;;;5053997;28;20707;-65
2022/02/01 12:00:59;;;;;;;4.77;3.50;;;4.90;99.90;;;;;;5054881;28;20215;-62
2022/02/01 12:03:36;;;;;;;5.97;3.60;;;5.00;99.90;;;;;;5055145;28;20615;-63
2022/02/01 12:06:08;;;;;;;8.00;3.53;;;5.00;99.90;;;;;;5055028;28;20678;-66
2022/02/01 12:08:37;;;;;;;5.57;3.77;;;5.10;99.90;;;;;;5055203;28;20584;-65
2022/02/01 12:11:07;;;;;;;4.27;3.07;;;5.10;99.90;;;;;;5053928;28;20397;-65
2022/02/01 12:13:36;;;;;;;4.17;2.83;;;5.20;99.90;;;;;;5053680;28;20267;-65
2022/02/01 12:16:06;;;;;;;5.03;3.53;;;5.20;99.90;;;;;;5053867;28;20279;-66
2022/02/01 12:18:38;;;;;;;4.33;3.40;;;5.20;99.90;;;;;;5053547;28;20209;-65
2022/02/01 12:21:16;;;;;;;7.17;3.90;;;5.20;99.90;;;;;;5053760;28;20186;-62
2022/02/01 12:23:46;;;;;;;4.80;3.33;;;5.30;99.90;;;;;;5053469;28;20227;-63
2022/02/01 12:26:19;;;;;;;3.37;2.33;;;5.30;99.90;;;;;;5053971;28;20371;-63
2022/02/01 12:28:48;;;;;;;4.43;3.00;;;5.40;99.90;;;;;;5053707;28;20298;-64
2022/02/01 12:31:16;;;;;;;4.77;2.83;;;5.40;99.90;;;;;;5053442;28;20206;-64
2022/02/01 12:33:44;;;;;;;6.63;4.70;;;5.40;99.90;;;;;;5053214;28;20212;-63
2022/02/01 12:36:12;;;;;;;3.80;3.03;;;5.40;99.90;;;;;;5053521;28;20225;-62
2022/02/01 12:38:40;;;;;;;5.23;3.53;;;5.50;99.90;;;;;;5053478;28;20258;-61
2022/02/01 12:41:14;;;;;;;3.97;2.83;;;5.50;99.90;;;;;;5053402;28;20216;-63
2022/02/01 12:46:43;;;;;;;5.10;3.30;;;5.50;99.90;;;;;;4978900;28;20232;-62
2022/02/01 12:49:10;;;;;;;3.63;3.07;;;5.50;99.90;;;;;;5053509;28;20186;-62
2022/02/01 12:51:42;;;;;;;4.63;3.43;;;5.60;99.90;;;;;;5053209;28;20275;-63
2022/02/01 12:54:19;;;;;;;5.53;3.50;;;5.60;99.90;;;;;;5055571;28;20815;-62
2022/02/01 12:56:46;;;;;;;4.50;3.23;;;5.60;99.90;;;;;;5064263;28;20216;-62
2022/02/01 12:59:14;;;;;;;4.93;3.53;;;5.70;99.90;;;;;;5074924;28;20212;-62
2022/02/01 13:01:41;;;;;;;3.00;2.17;;;5.60;99.90;;;;;;5072513;28;20232;-62
2022/02/01 13:04:08;;;;;;;5.23;4.03;;;5.60;99.90;;;;;;5072599;28;20679;-63
2022/02/01 13:06:39;;;;;;;4.53;3.70;;;5.70;99.90;;;;;;5072386;28;20209;-62
2022/02/01 13:14:46;;;;;;;4.53;3.73;;;5.70;99.90;;;;;;5072943;28;20212;-65
2022/02/01 13:17:37;;;;;;;6.60;4.53;;;5.70;99.90;;;;;;5071821;28;20682;-64
2022/02/01 13:20:12;;;;;;;6.43;4.60;;;5.80;99.90;;;;;;5072247;28;20209;-63
2022/02/01 13:22:52;;;;;;;5.83;4.50;;;5.80;99.90;;;;;;5072239;28;20227;-62
2022/02/01 13:25:28;;;;;;;8.17;4.90;;;5.80;99.90;;;;;;5072609;28;20213;-63
2022/02/01 13:27:59;;;;;;;5.23;4.20;;;5.90;99.90;;;;;;5072827;28;20208;-62
2022/02/01 13:30:27;;;;;;;4.17;3.53;;;5.90;99.90;;;;;;5072406;28;20739;-61
2022/02/01 13:32:53;;;;;;;4.90;3.87;;;5.90;99.90;;;;;;5072228;28;20229;-61
2022/02/01 13:35:21;;;;;;;4.07;3.53;;;5.90;99.90;;;;;;5071956;28;20725;-63
2022/02/01 13:37:49;;;;;;;5.17;3.70;;;6.00;99.90;;;;;;5071998;28;20295;-62
2022/02/01 13:40:25;;;;;;;5.93;4.03;;;6.00;99.90;;;;;;5072242;28;20213;-65
2022/02/01 13:42:54;;;;;;;3.47;2.83;;;6.00;99.90;;;;;;5070616;28;20224;-64
2022/02/01 13:45:34;;;;;;;5.13;3.40;;;6.00;99.90;;;;;;5052230;28;20214;-65
2022/02/01 13:48:01;;;;;;;3.60;2.53;;;6.00;99.90;;;;;;5068109;28;20220;-64
2022/02/01 13:50:27;;;;;;;5.73;3.80;;;6.10;99.90;;;;;;5072054;28;20259;-64
2022/02/01 13:52:59;;;;;;;5.33;3.33;;;6.20;99.90;;;;;;5071518;28;20251;-62
2022/02/01 13:55:28;;;;;;;5.20;4.03;;;6.10;99.90;;;;;;5071931;28;20675;-62
2022/02/01 13:58:02;;;;;;;5.67;4.00;;;6.20;99.90;;;;;;5071812;28;20204;-64
2022/02/01 14:00:33;;;;;;;5.47;4.07;;;6.20;99.90;;;;;;5071923;28;20220;-64
2022/02/01 14:03:28;;;;;;;7.67;5.20;;;6.20;99.90;;;;;;5071762;28;20250;-64
2022/02/01 14:06:10;;;;;;;6.37;4.93;;;6.30;99.90;;;;;;5071768;28;20609;-63
2022/02/01 14:08:45;;;;;;;7.00;5.63;;;6.30;99.90;;;;;;5071540;28;20201;-63
2022/02/01 14:11:39;;;;;;;7.03;5.77;;;6.30;99.90;;;;;;5071284;28;20213;-65
2022/02/01 14:23:04;;;;;;;8.27;6.67;;;6.40;99.90;;;;;;5070931;28;20235;-64